Time;durP1;ratioP1;P1;durP2;ratioP2;P2;SDS_P1;SDS_P2;PMS_P1;PMS_P2;Temp;Humidity;BMP_temperature;BMP_pressure;BME280_temperature;BME280_humidity;BME280_pressure;Samples;Min_cycle;Max_cycle;Signal;HPM_P1;HPM_P2
2022/06/19 00:00:57;;;;;;;14.80;5.35;;;;;;;;;;9575758;29;20058;-70
2022/06/19 00:05:52;;;;;;;7.13;5.38;;;;;;;;;;9572571;29;20047;-70
2022/06/19 00:10:45;;;;;;;8.38;5.43;;;;;;;;;;9574003;29;20044;-70
2022/06/19 00:15:40;;;;;;;10.95;5.20;;;;;;;;;;9575068;29;20071;-70
2022/06/19 00:20:32;;;;;;;15.20;6.78;;;;;;;;;;9577475;30;20404;-70
2022/06/19 00:25:26;;;;;;;8.32;5.25;;;;;;;;;;9577880;30;20499;-70
2022/06/19 00:30:19;;;;;;;10.80;4.60;;;;;;;;;;9576964;30;20452;-70
2022/06/19 00:35:14;;;;;;;9.20;5.40;;;;;;;;;;9577629;29;20055;-69
2022/06/19 00:40:10;;;;;;;7.32;4.60;;;;;;;;;;9576803;30;20082;-69
2022/06/19 00:45:07;;;;;;;14.68;5.38;;;;;;;;;;9577213;30;20415;-70
2022/06/19 00:50:23;;;;;;;15.23;6.57;;;;;;;;;;9575377;30;20047;-70
2022/06/19 00:55:31;;;;;;;9.00;4.95;;;;;;;;;;9574060;29;20054;-70
2022/06/19 01:00:29;;;;;;;16.38;6.38;;;;;;;;;;9560943;30;20055;-70
2022/06/19 01:05:24;;;;;;;7.97;5.60;;;;;;;;;;9561542;30;20109;-70
2022/06/19 01:10:18;;;;;;;8.23;5.05;;;;;;;;;;9560868;30;20055;-70
2022/06/19 01:15:16;;;;;;;14.50;5.22;;;;;;;;;;9576181;29;20561;-71
2022/06/19 01:20:13;;;;;;;7.30;4.63;;;;;;;;;;9576781;30;20079;-71
2022/06/19 01:25:12;;;;;;;5.77;4.03;;;;;;;;;;9577313;30;20411;-71
2022/06/19 01:30:07;;;;;;;7.50;4.55;;;;;;;;;;9576453;30;20062;-71
2022/06/19 01:35:02;;;;;;;12.60;4.35;;;;;;;;;;9575804;30;20065;-71
2022/06/19 01:40:21;;;;;;;7.78;4.35;;;;;;;;;;9560361;30;20056;-71
2022/06/19 01:45:16;;;;;;;13.18;4.38;;;;;;;;;;9568595;30;20130;-72
2022/06/19 01:50:13;;;;;;;12.30;5.00;;;;;;;;;;9576205;30;20134;-70
2022/06/19 01:55:14;;;;;;;8.63;4.95;;;;;;;;;;9576184;30;20444;-74
2022/06/19 02:00:11;;;;;;;9.07;5.00;;;;;;;;;;9576094;30;20062;-74
2022/06/19 02:05:05;;;;;;;9.05;4.05;;;;;;;;;;9576759;30;20059;-74
2022/06/19 02:09:59;;;;;;;13.70;4.32;;;;;;;;;;9575678;30;20150;-74
2022/06/19 02:14:53;;;;;;;7.18;4.47;;;;;;;;;;9575266;30;20064;-74
2022/06/19 02:19:47;;;;;;;8.98;4.15;;;;;;;;;;9560552;29;20062;-73
2022/06/19 02:24:41;;;;;;;7.40;4.20;;;;;;;;;;9566390;30;20047;-73
2022/06/19 02:29:37;;;;;;;8.40;4.05;;;;;;;;;;9550570;30;20155;-74
2022/06/19 02:34:39;;;;;;;8.43;5.20;;;;;;;;;;9564395;30;20050;-74
2022/06/19 02:40:14;;;;;;;10.20;4.00;;;;;;;;;;9581117;30;20523;-73
2022/06/19 02:45:16;;;;;;;8.63;4.95;;;;;;;;;;9521383;29;20140;-72
2022/06/19 02:50:34;;;;;;;10.55;5.75;;;;;;;;;;9580936;30;20560;-72
2022/06/19 02:55:28;;;;;;;9.75;5.10;;;;;;;;;;9577245;30;20055;-72
2022/06/19 03:00:41;;;;;;;13.50;4.78;;;;;;;;;;9564228;30;20047;-72
2022/06/19 03:05:36;;;;;;;9.88;4.32;;;;;;;;;;9572626;30;20051;-73
2022/06/19 03:10:30;;;;;;;15.85;4.15;;;;;;;;;;9579932;30;20085;-75
2022/06/19 03:15:28;;;;;;;12.50;4.50;;;;;;;;;;9580182;30;20090;-75
2022/06/19 03:20:28;;;;;;;14.88;4.35;;;;;;;;;;9580196;30;20411;-75
2022/06/19 03:25:22;;;;;;;9.55;4.20;;;;;;;;;;9579623;30;20055;-75
2022/06/19 03:30:18;;;;;;;9.30;3.83;;;;;;;;;;9563043;30;20063;-75
2022/06/19 03:35:15;;;;;;;7.45;3.95;;;;;;;;;;9578216;29;20087;-75
2022/06/19 03:40:10;;;;;;;13.70;4.30;;;;;;;;;;9579090;30;20062;-75
2022/06/19 03:45:08;;;;;;;9.32;4.25;;;;;;;;;;9579676;30;20059;-75
2022/06/19 03:50:03;;;;;;;8.77;4.00;;;;;;;;;;9579051;30;20070;-75
2022/06/19 03:54:57;;;;;;;7.53;4.47;;;;;;;;;;9578562;30;20602;-74
2022/06/19 03:59:51;;;;;;;16.42;4.75;;;;;;;;;;9578154;30;20089;-74
2022/06/19 04:04:45;;;;;;;11.88;5.03;;;;;;;;;;9578363;30;20057;-74
2022/06/19 04:09:39;;;;;;;8.45;3.55;;;;;;;;;;9578437;30;20519;-74
2022/06/19 04:14:33;;;;;;;10.65;4.25;;;;;;;;;;9577708;30;20181;-74
2022/06/19 04:19:27;;;;;;;4.43;3.65;;;;;;;;;;9578271;30;20139;-75
2022/06/19 04:24:21;;;;;;;10.52;3.90;;;;;;;;;;9578091;30;20087;-74
2022/06/19 04:29:17;;;;;;;14.68;4.05;;;;;;;;;;9577808;30;20113;-74
2022/06/19 04:34:11;;;;;;;13.70;3.40;;;;;;;;;;9577502;30;20059;-74
2022/06/19 04:39:04;;;;;;;15.23;3.88;;;;;;;;;;9576865;30;20100;-75
2022/06/19 04:43:59;;;;;;;9.30;4.10;;;;;;;;;;9576669;29;20055;-74
2022/06/19 04:48:53;;;;;;;11.77;5.85;;;;;;;;;;9570183;30;20104;-74
2022/06/19 04:53:47;;;;;;;10.68;3.92;;;;;;;;;;9561336;30;20126;-74
2022/06/19 04:58:41;;;;;;;12.77;4.32;;;;;;;;;;9576604;30;20504;-72
2022/06/19 05:03:36;;;;;;;17.52;3.97;;;;;;;;;;9576843;30;20138;-72
2022/06/19 05:08:33;;;;;;;12.85;7.30;;;;;;;;;;9576773;30;20118;-72
2022/06/19 05:13:27;;;;;;;12.43;7.00;;;;;;;;;;9576356;30;20120;-74
2022/06/19 05:18:21;;;;;;;20.58;7.43;;;;;;;;;;9574925;30;20052;-75
2022/06/19 05:23:15;;;;;;;12.60;5.82;;;;;;;;;;9576267;30;20051;-74
2022/06/19 05:28:09;;;;;;;10.05;6.68;;;;;;;;;;9577096;30;20055;-77
2022/06/19 05:33:03;;;;;;;9.70;5.95;;;;;;;;;;9575825;30;20083;-76
2022/06/19 05:37:56;;;;;;;9.60;7.13;;;;;;;;;;9575269;30;20047;-76
2022/06/19 05:42:50;;;;;;;14.32;7.80;;;;;;;;;;9574534;30;20157;-77
2022/06/19 05:47:45;;;;;;;11.85;6.53;;;;;;;;;;9575817;30;20075;-74
2022/06/19 05:52:39;;;;;;;8.10;5.13;;;;;;;;;;9572826;30;20419;-76
2022/06/19 05:57:33;;;;;;;10.40;5.80;;;;;;;;;;9580101;29;20134;-75
2022/06/19 06:02:27;;;;;;;16.85;8.98;;;;;;;;;;9566801;30;20055;-76
2022/06/19 06:07:22;;;;;;;9.50;6.78;;;;;;;;;;9582581;30;20055;-75
2022/06/19 06:12:16;;;;;;;15.55;6.47;;;;;;;;;;9580082;30;20066;-81
2022/06/19 06:17:15;;;;;;;7.75;5.68;;;;;;;;;;9580113;30;20420;-76
2022/06/19 06:22:11;;;;;;;8.90;6.13;;;;;;;;;;9578006;30;20093;-76
2022/06/19 06:27:08;;;;;;;8.80;5.72;;;;;;;;;;9581613;29;20047;-76
2022/06/19 06:32:04;;;;;;;12.77;6.45;;;;;;;;;;9582273;30;20116;-77
2022/06/19 06:36:58;;;;;;;12.27;5.72;;;;;;;;;;9577415;30;20794;-77
2022/06/19 06:41:52;;;;;;;9.15;6.07;;;;;;;;;;9577638;30;20055;-77
2022/06/19 06:46:47;;;;;;;16.20;6.63;;;;;;;;;;9578362;30;20423;-78
2022/06/19 06:51:41;;;;;;;15.52;5.78;;;;;;;;;;9580737;30;20055;-78
2022/06/19 06:56:35;;;;;;;8.13;5.68;;;;;;;;;;9569689;29;20472;-78
2022/06/19 07:01:30;;;;;;;12.13;6.53;;;;;;;;;;9578472;30;20112;-79
2022/06/19 07:06:25;;;;;;;14.18;7.20;;;;;;;;;;9580410;29;20458;-80
2022/06/19 07:11:23;;;;;;;11.82;5.70;;;;;;;;;;9579634;30;20063;-85
2022/06/19 07:16:17;;;;;;;13.55;6.57;;;;;;;;;;9578040;29;20087;-83
2022/06/19 07:21:12;;;;;;;11.02;5.00;;;;;;;;;;9579300;30;20063;-78
2022/06/19 07:26:11;;;;;;;14.32;5.85;;;;;;;;;;9579815;30;20432;-79
2022/06/19 07:31:04;;;;;;;;;;;;;;;;;;9579686;30;20059;-80
2022/06/19 07:35:59;;;;;;;9.10;4.43;;;;;;;;;;9578924;30;19933;-82
2022/06/19 07:40:53;;;;;;;12.40;3.50;;;;;;;;;;9578891;30;20055;-79
2022/06/19 07:45:47;;;;;;;10.32;3.42;;;;;;;;;;9579056;30;20059;-72
2022/06/19 07:50:40;;;;;;;13.73;3.50;;;;;;;;;;9576528;29;20422;-76
2022/06/19 07:55:33;;;;;;;13.55;3.97;;;;;;;;;;9574682;29;20044;-75
2022/06/19 08:00:30;;;;;;;8.00;2.95;;;;;;;;;;9575235;30;20098;-76
2022/06/19 08:05:28;;;;;;;9.43;2.70;;;;;;;;;;9575510;30;20066;-76
2022/06/19 08:10:24;;;;;;;5.15;2.30;;;;;;;;;;9574610;30;20550;-76
2022/06/19 08:15:19;;;;;;;5.88;3.13;;;;;;;;;;9575224;30;20055;-77
2022/06/19 08:20:13;;;;;;;4.40;2.30;;;;;;;;;;9573856;29;20538;-80
2022/06/19 08:25:09;;;;;;;7.60;3.10;;;;;;;;;;9575937;30;20507;-75
2022/06/19 08:30:07;;;;;;;10.63;3.78;;;;;;;;;;9576429;30;20508;-78
2022/06/19 08:35:01;;;;;;;;;;;;;;;;;;9576183;30;20062;-77
2022/06/19 08:39:54;;;;;;;4.18;2.53;;;;;;;;;;9574687;30;19929;-77
2022/06/19 08:45:07;;;;;;;5.03;2.53;;;;;;;;;;9574560;30;20051;-75
2022/06/19 08:50:42;;;;;;;4.20;3.53;;;;;;;;;;9575133;30;20130;-79
2022/06/19 08:55:43;;;;;;;4.47;3.28;;;;;;;;;;9558820;30;20055;-77
2022/06/19 09:00:39;;;;;;;7.90;3.40;;;;;;;;;;9575781;30;20073;-77
2022/06/19 09:05:53;;;;;;;7.05;3.20;;;;;;;;;;9574435;30;20047;-77
2022/06/19 09:11:09;;;;;;;6.10;3.58;;;;;;;;;;9559032;30;20551;-76
2022/06/19 09:16:07;;;;;;;3.10;2.75;;;;;;;;;;9560514;30;20083;-78
2022/06/19 09:21:26;;;;;;;3.72;3.20;;;;;;;;;;9572109;30;20048;-76
2022/06/19 09:26:37;;;;;;;7.55;3.95;;;;;;;;;;9555767;30;20047;-78
2022/06/19 09:31:36;;;;;;;5.18;3.28;;;;;;;;;;9563045;29;20511;-80
2022/06/19 09:36:32;;;;;;;6.63;3.22;;;;;;;;;;9581364;30;20079;-71
2022/06/19 09:41:40;;;;;;;10.25;3.42;;;;;;;;;;9581672;30;20061;-74
2022/06/19 09:47:02;;;;;;;6.55;3.38;;;;;;;;;;9579831;30;20074;-70
2022/06/19 09:52:12;;;;;;;10.50;4.47;;;;;;;;;;9578267;30;20063;-69
2022/06/19 09:57:18;;;;;;;7.20;3.00;;;;;;;;;;9559028;29;20055;-68
2022/06/19 10:02:30;;;;;;;5.38;2.85;;;;;;;;;;9577767;30;20066;-69
2022/06/19 10:07:39;;;;;;;6.13;2.90;;;;;;;;;;9576671;30;20169;-69
2022/06/19 10:12:36;;;;;;;4.95;3.75;;;;;;;;;;9577087;30;20055;-68
2022/06/19 10:17:54;;;;;;;4.35;3.25;;;;;;;;;;9558756;30;20066;-69
2022/06/19 10:22:59;;;;;;;5.60;2.72;;;;;;;;;;9577768;29;20070;-69
2022/06/19 10:28:03;;;;;;;7.65;2.97;;;;;;;;;;9564181;30;20070;-68
2022/06/19 10:33:24;;;;;;;6.85;2.97;;;;;;;;;;9564217;30;20078;-68
2022/06/19 10:38:26;;;;;;;9.93;3.08;;;;;;;;;;9577652;29;20052;-69
2022/06/19 10:43:25;;;;;;;8.30;2.70;;;;;;;;;;9577333;29;20047;-69
2022/06/19 10:48:40;;;;;;;3.05;2.40;;;;;;;;;;9576564;30;20052;-67
2022/06/19 10:53:40;;;;;;;5.20;2.40;;;;;;;;;;9570714;30;20112;-67
2022/06/19 10:58:33;;;;;;;5.55;2.47;;;;;;;;;;9580343;30;20100;-67
2022/06/19 11:09:19;;;;;;;4.93;2.05;;;;;;;;;;9573197;30;20074;-70
2022/06/19 11:14:29;;;;;;;2.85;2.38;;;;;;;;;;9562741;29;20134;-68
2022/06/19 11:19:40;;;;;;;8.63;2.88;;;;;;;;;;9575869;29;20058;-69
2022/06/19 11:24:37;;;;;;;4.03;2.78;;;;;;;;;;9577630;30;20062;-69
2022/06/19 11:29:32;;;;;;;3.53;2.08;;;;;;;;;;9577439;30;20062;-69
2022/06/19 11:34:46;;;;;;;5.28;3.03;;;;;;;;;;9577701;30;20056;-69
2022/06/19 11:39:50;;;;;;;5.13;2.95;;;;;;;;;;9576133;30;20142;-69
2022/06/19 11:45:15;;;;;;;5.03;2.72;;;;;;;;;;9574933;30;20051;-68
2022/06/19 11:50:32;;;;;;;10.13;2.43;;;;;;;;;;9578707;30;20051;-68
2022/06/19 11:55:38;;;;;;;3.42;2.50;;;;;;;;;;9567691;29;20508;-69
2022/06/19 12:00:34;;;;;;;6.15;2.58;;;;;;;;;;9561231;30;20127;-68
2022/06/19 12:05:32;;;;;;;;;;;;;;;;;;9560864;30;20064;-68
2022/06/19 12:10:29;;;;;;;8.68;2.38;;;;;;;;;;9561233;30;19961;-68
2022/06/19 12:15:28;;;;;;;8.25;3.30;;;;;;;;;;9577308;29;20070;-68
2022/06/19 12:20:26;;;;;;;4.03;2.75;;;;;;;;;;9576759;29;20055;-69
2022/06/19 12:25:33;;;;;;;17.88;4.55;;;;;;;;;;9576292;30;20051;-69
2022/06/19 12:30:49;;;;;;;9.90;3.60;;;;;;;;;;9576474;29;20138;-69
2022/06/19 12:35:50;;;;;;;11.80;2.67;;;;;;;;;;9576775;30;20571;-69
2022/06/19 12:41:04;;;;;;;6.05;2.22;;;;;;;;;;9576152;30;20044;-67
2022/06/19 12:45:58;;;;;;;7.40;2.10;;;;;;;;;;9576866;30;20043;-68
2022/06/19 12:51:17;;;;;;;7.05;2.35;;;;;;;;;;9574573;30;20055;-68
2022/06/19 12:56:36;;;;;;;5.22;2.50;;;;;;;;;;9575373;30;20053;-69
2022/06/19 13:01:43;;;;;;;5.50;2.20;;;;;;;;;;9556435;30;20066;-68
2022/06/19 13:06:56;;;;;;;8.98;2.90;;;;;;;;;;9558219;30;20051;-69
2022/06/19 13:12:21;;;;;;;6.80;2.30;;;;;;;;;;9554618;29;20148;-67
2022/06/19 13:17:30;;;;;;;7.90;2.10;;;;;;;;;;9573352;30;20087;-68
2022/06/19 13:22:30;;;;;;;4.53;2.30;;;;;;;;;;9573425;30;20492;-67
2022/06/19 13:27:50;;;;;;;9.25;2.25;;;;;;;;;;9570246;30;20079;-68
2022/06/19 13:32:53;;;;;;;7.70;2.38;;;;;;;;;;9572295;29;20130;-68
2022/06/19 13:38:22;;;;;;;5.93;2.60;;;;;;;;;;9572989;30;20459;-68
2022/06/19 13:43:34;;;;;;;12.55;2.38;;;;;;;;;;9573735;30;20415;-69
2022/06/19 13:49:02;;;;;;;11.27;3.55;;;;;;;;;;9574725;30;20055;-68
2022/06/19 13:53:57;;;;;;;10.70;2.75;;;;;;;;;;9438239;30;20096;-68
2022/06/19 13:59:15;;;;;;;7.13;2.60;;;;;;;;;;9573646;30;20086;-69
2022/06/19 14:04:47;;;;;;;6.25;1.80;;;;;;;;;;9567797;30;20130;-69
2022/06/19 14:10:12;;;;;;;7.72;2.45;;;;;;;;;;9573703;30;20078;-69
2022/06/19 14:15:11;;;;;;;10.35;2.40;;;;;;;;;;9572287;29;20480;-69
2022/06/19 14:20:14;;;;;;;6.78;2.42;;;;;;;;;;9580943;30;20088;-67
2022/06/19 14:25:35;;;;;;;11.45;2.25;;;;;;;;;;9559387;30;20510;-67
2022/06/19 14:30:33;;;;;;;11.10;3.28;;;;;;;;;;9564683;29;20134;-68
2022/06/19 14:35:29;;;;;;;4.68;2.15;;;;;;;;;;9579464;30;20055;-67
2022/06/19 14:40:23;;;;;;;8.85;2.33;;;;;;;;;;9580154;29;20055;-68
2022/06/19 14:45:20;;;;;;;5.80;2.15;;;;;;;;;;9579990;30;20138;-68
2022/06/19 14:50:52;;;;;;;11.45;2.30;;;;;;;;;;9563888;30;20043;-68
2022/06/19 14:56:09;;;;;;;12.18;2.38;;;;;;;;;;9535663;30;20059;-69
2022/06/19 15:01:03;;;;;;;7.30;2.88;;;;;;;;;;9579166;30;20108;-67
2022/06/19 15:06:08;;;;;;;4.38;2.60;;;;;;;;;;9563270;30;20063;-68
2022/06/19 15:11:05;;;;;;;8.93;2.53;;;;;;;;;;9578074;29;20091;-68
2022/06/19 15:16:25;;;;;;;7.57;2.17;;;;;;;;;;9563382;30;20087;-68
2022/06/19 15:22:14;;;;;;;4.60;2.30;;;;;;;;;;9574560;30;20047;-69
2022/06/19 15:27:24;;;;;;;5.82;2.83;;;;;;;;;;9577418;29;20043;-68
2022/06/19 15:32:33;;;;;;;6.55;2.50;;;;;;;;;;9577210;29;20419;-68
2022/06/19 15:37:49;;;;;;;4.90;2.55;;;;;;;;;;9577020;30;20074;-69
2022/06/19 15:43:20;;;;;;;6.22;2.75;;;;;;;;;;9577211;29;20515;-66
2022/06/19 15:48:13;;;;;;;12.40;2.33;;;;;;;;;;9538905;30;20063;-67
2022/06/19 15:53:17;;;;;;;6.38;2.53;;;;;;;;;;9577094;30;20052;-68
2022/06/19 15:58:13;;;;;;;10.05;2.65;;;;;;;;;;9560892;30;20062;-69
2022/06/19 16:03:14;;;;;;;5.38;2.38;;;;;;;;;;9577968;29;20124;-68
2022/06/19 16:08:19;;;;;;;10.95;2.85;;;;;;;;;;9561267;30;20546;-68
2022/06/19 16:13:14;;;;;;;11.70;2.67;;;;;;;;;;9577968;30;20053;-69
2022/06/19 16:18:22;;;;;;;6.28;2.95;;;;;;;;;;9575705;29;20071;-68
2022/06/19 16:23:15;;;;;;;6.05;2.75;;;;;;;;;;9576243;30;20055;-68
2022/06/19 16:28:16;;;;;;;13.43;3.03;;;;;;;;;;9575806;30;20135;-67
2022/06/19 16:33:19;;;;;;;5.25;3.08;;;;;;;;;;9574186;29;20108;-69
2022/06/19 16:44:14;;;;;;;12.63;2.90;;;;;;;;;;9572969;30;20055;-69
2022/06/19 16:49:29;;;;;;;11.13;3.97;;;;;;;;;;9574863;30;20051;-69
2022/06/19 16:54:36;;;;;;;9.65;3.33;;;;;;;;;;9576385;30;20183;-68
2022/06/19 16:59:31;;;;;;;9.77;3.70;;;;;;;;;;9562142;30;20059;-69
2022/06/19 17:04:26;;;;;;;7.82;2.70;;;;;;;;;;9575338;30;20058;-69
2022/06/19 17:09:40;;;;;;;9.18;3.22;;;;;;;;;;9559745;30;20078;-67
2022/06/19 17:14:44;;;;;;;8.02;3.90;;;;;;;;;;9573238;30;20074;-68
2022/06/19 17:19:59;;;;;;;5.75;3.58;;;;;;;;;;9559301;30;20054;-69
2022/06/19 17:25:15;;;;;;;8.20;3.60;;;;;;;;;;9574631;30;20067;-69
2022/06/19 17:30:16;;;;;;;5.63;3.88;;;;;;;;;;9572658;30;20101;-70
2022/06/19 17:35:38;;;;;;;6.60;3.95;;;;;;;;;;9574827;30;20116;-70
2022/06/19 17:40:40;;;;;;;6.75;3.05;;;;;;;;;;9572942;29;20116;-68
2022/06/19 17:45:34;;;;;;;7.65;3.55;;;;;;;;;;9574400;29;20561;-68
2022/06/19 17:50:44;;;;;;;6.30;3.30;;;;;;;;;;9558084;29;20108;-69
2022/06/19 17:55:40;;;;;;;15.40;3.55;;;;;;;;;;9580581;30;20087;-69
2022/06/19 18:00:35;;;;;;;7.47;3.28;;;;;;;;;;9580146;30;20043;-69
2022/06/19 18:05:36;;;;;;;4.82;3.30;;;;;;;;;;9565064;30;20056;-69
2022/06/19 18:10:37;;;;;;;7.97;3.35;;;;;;;;;;9580976;30;20051;-69
2022/06/19 18:20:43;;;;;;;8.15;2.95;;;;;;;;;;9579359;29;20062;-68
2022/06/19 18:25:37;;;;;;;6.18;3.60;;;;;;;;;;9579833;29;20055;-69
2022/06/19 18:30:31;;;;;;;7.05;3.13;;;;;;;;;;9579665;30;20051;-69
2022/06/19 18:35:25;;;;;;;4.47;2.90;;;;;;;;;;9579439;30;20054;-68
2022/06/19 18:40:19;;;;;;;5.00;3.40;;;;;;;;;;9579411;30;20418;-69
2022/06/19 18:45:14;;;;;;;13.75;3.28;;;;;;;;;;9579526;30;20051;-69
2022/06/19 18:50:12;;;;;;;6.70;3.10;;;;;;;;;;9578873;29;20051;-69
2022/06/19 18:55:16;;;;;;;5.65;3.20;;;;;;;;;;9563347;30;20051;-70
2022/06/19 19:00:31;;;;;;;5.57;4.30;;;;;;;;;;9578741;30;20043;-68
2022/06/19 19:05:25;;;;;;;7.53;3.40;;;;;;;;;;9577250;29;20063;-68
2022/06/19 19:10:31;;;;;;;4.15;2.90;;;;;;;;;;9538390;30;20059;-69
2022/06/19 19:15:32;;;;;;;6.60;3.25;;;;;;;;;;9579058;30;20371;-68
2022/06/19 19:20:49;;;;;;;6.45;3.33;;;;;;;;;;9563330;30;20063;-68
2022/06/19 19:25:49;;;;;;;7.50;3.90;;;;;;;;;;9578711;30;20482;-68
2022/06/19 19:30:44;;;;;;;3.72;3.28;;;;;;;;;;9561705;30;20110;-69
2022/06/19 19:35:41;;;;;;;5.80;3.22;;;;;;;;;;9578046;30;20059;-67
2022/06/19 19:40:34;;;;;;;4.82;3.20;;;;;;;;;;9561631;30;20055;-69
2022/06/19 19:45:30;;;;;;;7.72;3.35;;;;;;;;;;9576910;30;20105;-67
2022/06/19 19:50:29;;;;;;;6.45;3.63;;;;;;;;;;9577663;30;20526;-67
2022/06/19 19:55:24;;;;;;;4.68;3.10;;;;;;;;;;9576893;29;20071;-67
2022/06/19 20:00:40;;;;;;;5.18;3.40;;;;;;;;;;9576079;30;20050;-68
2022/06/19 20:11:27;;;;;;;8.27;3.72;;;;;;;;;;9564277;30;20112;-67
2022/06/19 20:16:27;;;;;;;6.35;3.50;;;;;;;;;;9574038;29;20469;-66
2022/06/19 20:21:34;;;;;;;7.15;3.78;;;;;;;;;;9577443;30;20082;-73
2022/06/19 20:26:35;;;;;;;5.88;4.13;;;;;;;;;;9578257;30;20134;-78
2022/06/19 20:31:29;;;;;;;8.13;3.83;;;;;;;;;;9554909;29;20385;-68
2022/06/19 20:36:34;;;;;;;8.00;3.45;;;;;;;;;;9555010;29;20074;-68
2022/06/19 20:46:40;;;;;;;5.82;3.75;;;;;;;;;;9560720;30;20055;-69
2022/06/19 20:51:36;;;;;;;5.90;3.17;;;;;;;;;;9559722;30;20523;-68
2022/06/19 20:56:32;;;;;;;6.25;3.55;;;;;;;;;;9574144;29;20063;-71
2022/06/19 21:01:27;;;;;;;11.82;3.45;;;;;;;;;;9574764;29;20051;-72
2022/06/19 21:06:21;;;;;;;5.05;3.95;;;;;;;;;;9571955;30;20059;-70
2022/06/19 21:11:23;;;;;;;6.82;4.30;;;;;;;;;;9571937;30;20056;-70
2022/06/19 21:16:20;;;;;;;6.97;4.38;;;;;;;;;;9570703;30;20059;-71
2022/06/19 21:21:24;;;;;;;10.52;3.25;;;;;;;;;;9572735;30;20100;-71
2022/06/19 21:26:22;;;;;;;11.23;3.60;;;;;;;;;;9575442;29;20058;-72
2022/06/19 21:31:16;;;;;;;9.93;4.75;;;;;;;;;;9581112;30;20055;-72
2022/06/19 21:36:25;;;;;;;18.70;4.13;;;;;;;;;;9578563;29;20469;-71
2022/06/19 21:41:31;;;;;;;5.63;3.40;;;;;;;;;;9578448;29;20691;-71
2022/06/19 21:46:27;;;;;;;;;;;;;;;;;;9562248;29;20063;-72
2022/06/19 21:51:24;;;;;;;9.05;4.07;;;;;;;;;;9580662;29;20378;-71
2022/06/19 21:56:21;;;;;;;11.38;4.05;;;;;;;;;;9578726;29;20104;-74
2022/06/19 22:01:15;;;;;;;4.88;3.95;;;;;;;;;;9579246;29;20136;-72
2022/06/19 22:06:18;;;;;;;5.10;4.57;;;;;;;;;;9580168;29;20051;-73
2022/06/19 22:16:44;;;;;;;7.10;4.90;;;;;;;;;;9580032;29;20093;-72
2022/06/19 22:21:38;;;;;;;8.70;5.10;;;;;;;;;;9578604;29;20093;-73
2022/06/19 22:26:33;;;;;;;9.52;4.68;;;;;;;;;;9564198;29;20090;-71
2022/06/19 22:31:29;;;;;;;5.78;4.65;;;;;;;;;;9578695;29;20055;-73
2022/06/19 22:36:27;;;;;;;10.93;5.70;;;;;;;;;;9575237;29;20474;-72
2022/06/19 22:41:24;;;;;;;7.57;6.88;;;;;;;;;;9577615;29;20051;-72
2022/06/19 22:46:18;;;;;;;8.18;7.00;;;;;;;;;;9562510;29;20055;-72
2022/06/19 22:51:15;;;;;;;7.85;6.28;;;;;;;;;;9574144;29;20120;-71
2022/06/19 22:56:18;;;;;;;5.50;4.85;;;;;;;;;;9575775;29;20055;-72
2022/06/19 23:06:27;;;;;;;6.22;4.93;;;;;;;;;;9567608;29;20051;-72
2022/06/19 23:11:21;;;;;;;10.20;5.50;;;;;;;;;;9564525;30;20150;-72
2022/06/19 23:16:16;;;;;;;9.63;5.00;;;;;;;;;;9579973;30;20067;-72
2022/06/19 23:21:10;;;;;;;10.32;7.03;;;;;;;;;;9580019;30;20499;-72
2022/06/19 23:26:07;;;;;;;7.28;5.63;;;;;;;;;;9564508;30;20142;-72
2022/06/19 23:31:01;;;;;;;9.32;5.85;;;;;;;;;;9579575;30;20059;-72
2022/06/19 23:35:55;;;;;;;6.78;5.45;;;;;;;;;;9579898;30;20109;-72
2022/06/19 23:40:48;;;;;;;6.25;4.57;;;;;;;;;;9578953;30;20061;-72
2022/06/19 23:45:43;;;;;;;7.80;5.85;;;;;;;;;;9563437;29;20138;-73
2022/06/19 23:50:36;;;;;;;7.25;5.63;;;;;;;;;;9579015;29;20093;-72
2022/06/19 23:55:30;;;;;;;9.88;7.22;;;;;;;;;;9578539;29;20117;-72
